AirNav   Air Wisconsin pilot careers
 
 791 users online  

FD88 Aero Acres Airport
Fort Pierce, Florida, USA

GOING TO FORT PIERCE?


FAA INFORMATION EFFECTIVE 23 MAY 2019

Location

FAA Identifier: FD88
Lat/Long: 27-20-31.1530N / 080-31-19.1960W
27-20.519217N / 080-31.319933W
27.3419869 / -80.5219989
(estimated)
Elevation: 25 ft. / 8 m (estimated)
Variation: 03W (1985)
From city: 11 miles SW of FORT PIERCE, FL
Time zone: UTC -4 (UTC -5 during Standard Time)
Zip code: 34987

Airport Operations

Airport use: Private use. Permission required prior to landing
Activation date: 02/1990
Control tower: no
ARTCC: MIAMI CENTER
FSS: MIAMI FLIGHT SERVICE STATION
Attendance: UNATNDD
Wind indicator: lighted
Segmented circle: no
Lights: FOR MIRL RY 09/27 5 CLICKS ON 122.9.
Beacon: white-white-green (lighted military airport)

Airport Communications

WX ASOS at FPR (12 nm NE): PHONE 772-489-4281
WX AWOS-3 at OBE (18 nm W): 118.675 (863-467-1148)
WX AWOS-3 at SUA (19 nm SE): PHONE 772-692-7399
WX ASOS at VRB (20 nm N): PHONE 772-978-9535

Nearby radio navigation aids

VOR radial/distance  VOR name  Freq  Var
TRVr192/20.3TREASURE VORTAC117.3007W
PHKr015/34.8PAHOKEE VOR/DME115.4000E

 
NDB name  Hdg/Dist  Freq  Var  ID
FORT PIERCE229/11.827507WFPR ..-. .--. .-.
UNITED344/27.840505WUTX ..- - -..-

Airport Services

Runway Information

Runway 9/27

Dimensions: 3150 x 50 ft. / 960 x 15 m
Surface: concrete
Runway edge lights: medium intensity
RUNWAY 9  RUNWAY 27
Traffic pattern: leftleft
Displaced threshold: 300 ft.300 ft.
Obstructions: 50 ft. trees, 450 ft. from runwaynone

Airport Ownership and Management from official FAA records

Ownership: Privately-owned
Owner: AERO ACRES PROPERTY OWNERS
18506 MACH ONE DRIVE
PORT ST LUCIE, FL 34987
Phone 772-595-9562
Manager: BEBE OWEN
18506 MACH ONE DRIVE
PORT ST LUCIE, FL 34988
Phone 772-595-9562

Airport Operational Statistics

Aircraft based on the field: 31
Single engine airplanes: 24
Multi engine airplanes: 4
Jet airplanes: 1
Helicopters: 1
Ultralights: 1
    

Additional Remarks

BIRDS ON RUNWAY.

Instrument Procedures

There are no published instrument procedures at FD88.

Some nearby airports with instrument procedures:

KFPR - Treasure Coast International Airport (12 nm NE)
KOBE - Okeechobee County Airport (18 nm W)
KSUA - Witham Field Airport (19 nm SE)
KVRB - Vero Beach Regional Airport (20 nm N)
06FA - William P Gwinn Airport (28 nm S)
 
Loc | Ops | Rwys | IFR | FBO | Links
Com | Nav | Svcs | Stats | Notes


 
Area around FD88 (Aero Acres Airport)
 
Road maps at: MapQuest Bing Google
 
Aerial photo
WARNING: Photo may not be current or correct
Aerial photo of FD88 (Aero Acres Airport)
Do you have a better or more recent aerial photo of Aero Acres Airport that you would like to share? If so, please send us your photo.

 
Sectional chart

 
Airport distance calculator
Flying to Aero Acres Airport? Find the distance to fly.

From to FD88

Sunrise and sunset
Times for 15-Jun-2019
 Local
(UTC-4)
 Zulu
(UTC)
Morning civil twilight06:0110:01
Sunrise06:2810:28
Sunset20:1700:17
Evening civil twilight20:4400:44

Current date and time
Zulu (UTC)  16-Jun-2019 02:00:54
Local (UTC-4)  15-Jun-2019 22:00:54
 
METAR
KFPR 
12nm NE 
160153Z AUTO 11006KT 10SM CLR 27/23 A3007 RMK AO2 SLP183 T02670228 TSNO
KOBE 
18nm W 
160135Z AUTO 00000KT 10SM CLR 25/23 A3007 RMK AO2
KSUA 
19nm SE 
160155Z AUTO 00000KT 10SM SCT020 27/22 A3008 RMK AO2
KVRB 
19nm N 
160153Z AUTO 11007KT 10SM CLR 27/23 A3008 RMK AO2 SLP183 T02720228
TAF
KFPR 
12nm NE 
151724Z 1518/1618 09010KT P6SM FEW035 BKN250 FM160300 12005KT P6SM VCSH SCT025 BKN250 FM161400 13007KT P6SM SCT030
KSUA 
19nm SE 
151724Z 1518/1618 09010KT P6SM SCT030 BKN250 FM160300 12005KT P6SM VCSH SCT025 BKN250 FM161400 13007KT P6SM SCT030
KVRB 
19nm N 
151724Z 1518/1618 09010KT P6SM FEW035 BKN250 FM160300 12005KT P6SM VCSH SCT025 BKN250 FM161400 13007KT P6SM SCT030
NOTAMs
Click for the latest NOTAMs
NOTAMs are issued by the DoD/FAA and will open in a separate window not controlled by AirNav.

 

 
 

Would you like to see your business listed on this page?

 If your business provides an interesting product or service to pilots, flight crews, aircraft, or users of the Aero Acres Airport, you should consider listing it here.  To start the listing process, click on the button below
 
Add a business
 

Other Pages about Aero Acres Airport

www.aero-acres.com
 
Update a link
 
Copyright © AirNav, LLC. All rights reserved. Privacy Policy  Contact